createdAt,value
2019-04-29T00:01:26.320Z,101505.70
2019-04-29T00:03:58.764Z,101510.03
2019-04-29T00:06:29.098Z,101510.03
2019-04-29T00:08:58.090Z,101510.45
2019-04-29T00:11:26.643Z,101513.92
2019-04-29T00:13:57.245Z,101469.50
2019-04-29T00:16:41.257Z,101520.55
2019-04-29T00:19:21.786Z,101516.62
2019-04-29T00:21:50.357Z,101521.00
2019-04-29T00:24:20.577Z,101516.17
2019-04-29T00:26:51.269Z,101523.59
2019-04-29T00:29:19.837Z,101521.41
2019-04-29T00:31:48.392Z,101521.39
2019-04-29T00:34:16.979Z,101529.24
2019-04-29T00:36:57.990Z,101520.94
2019-04-29T00:39:59.527Z,101520.48
2019-04-29T00:42:40.619Z,101521.80
2019-04-29T00:45:09.122Z,101514.34
2019-04-29T00:47:39.696Z,101521.37
2019-04-29T00:50:08.454Z,101523.99
2019-04-29T00:52:41.743Z,101525.76
2019-04-29T00:55:14.591Z,101520.07
2019-04-29T00:57:43.482Z,101526.59
2019-04-29T01:00:14.090Z,101529.27
2019-04-29T01:02:42.663Z,101524.87
2019-04-29T01:05:11.523Z,101523.14
2019-04-29T01:07:40.155Z,101534.08
2019-04-29T01:10:08.963Z,101527.09
2019-04-29T01:12:38.090Z,101530.11
2019-04-29T01:15:07.075Z,101526.60
2019-04-29T01:17:35.820Z,101530.52
2019-04-29T01:20:06.805Z,101525.73
2019-04-29T01:22:36.955Z,101526.61
2019-04-29T01:25:08.421Z,101528.41
2019-04-29T01:27:42.682Z,101528.45
2019-04-29T01:30:33.635Z,101519.26
2019-04-29T01:33:04.678Z,101520.98
2019-04-29T01:35:36.554Z,101524.04
2019-04-29T01:38:05.563Z,101531.52
2019-04-29T01:40:48.089Z,101523.67
2019-04-29T01:43:18.269Z,101527.58
2019-04-29T01:45:46.836Z,101525.84
2019-04-29T01:48:15.440Z,101526.70
2019-04-29T01:50:44.339Z,101519.27
2019-04-29T01:53:16.361Z,101515.32
2019-04-29T01:55:46.303Z,101521.43
2019-04-29T01:58:15.052Z,101528.39
2019-04-29T02:00:43.994Z,101524.87
2019-04-29T02:03:13.309Z,101526.62
2019-04-29T02:05:41.942Z,101526.61
2019-04-29T02:08:10.884Z,101515.68
2019-04-29T02:10:39.806Z,101519.62
2019-04-29T02:13:08.668Z,101520.47
2019-04-29T02:15:37.409Z,101523.06
2019-04-29T02:18:06.578Z,101518.26
2019-04-29T02:20:35.133Z,101523.46
2019-04-29T02:23:15.463Z,101520.80
2019-04-29T02:25:45.198Z,101528.70
2019-04-29T02:28:14.732Z,101524.33
2019-04-29T02:30:47.950Z,101520.39
2019-04-29T02:33:18.525Z,101528.70
2019-04-29T02:35:47.279Z,101520.85
2019-04-29T02:38:29.888Z,101519.98
2019-04-29T02:41:06.750Z,101523.85
2019-04-29T02:43:37.708Z,101519.95
2019-04-29T02:46:06.260Z,101509.94
2019-04-29T02:48:35.220Z,101516.08
2019-04-29T02:51:03.804Z,101516.43
2019-04-29T02:53:35.387Z,101508.19
2019-04-29T02:56:05.880Z,101516.54
2019-04-29T02:58:42.227Z,101512.63
2019-04-29T03:01:35.068Z,101515.20
2019-04-29T03:04:10.141Z,101515.65
2019-04-29T03:06:38.893Z,101501.70
2019-04-29T03:09:11.772Z,101507.83
2019-04-29T03:11:40.741Z,101504.37
2019-04-29T03:14:10.683Z,101498.67
2019-04-29T03:16:40.921Z,101506.52
2019-04-29T03:19:16.170Z,101503.88
2019-04-29T03:21:57.330Z,101502.98
2019-04-29T03:24:26.295Z,101501.67
2019-04-29T03:26:56.244Z,101506.94
2019-04-29T03:29:24.909Z,101501.71
2019-04-29T03:31:55.104Z,101508.23
2019-04-29T03:34:23.875Z,101506.07
2019-04-29T03:36:53.059Z,101497.72
2019-04-29T03:39:22.093Z,101506.00
2019-04-29T03:41:50.654Z,101506.06
2019-04-29T03:44:21.088Z,101503.89
2019-04-29T03:46:54.895Z,101507.83
2019-04-29T03:49:23.904Z,101507.41
2019-04-29T03:51:53.933Z,101500.45
2019-04-29T03:54:25.690Z,101502.64
2019-04-29T03:56:54.448Z,101499.61
2019-04-29T03:59:25.805Z,101501.38
2019-04-29T04:02:18.805Z,101500.97
2019-04-29T04:05:04.424Z,101507.52
2019-04-29T04:07:40.240Z,101508.40
2019-04-29T04:10:09.234Z,101511.88
2019-04-29T04:12:38.308Z,101510.11
2019-04-29T04:15:11.539Z,101511.36
2019-04-29T04:18:02.346Z,101511.77
2019-04-29T04:20:31.008Z,101515.69
2019-04-29T04:23:01.835Z,101519.17
2019-04-29T04:25:30.413Z,101519.22
2019-04-29T04:27:59.161Z,101520.09
2019-04-29T04:30:34.026Z,101524.03
2019-04-29T04:33:02.603Z,101524.87
2019-04-29T04:35:31.566Z,101529.21
2019-04-29T04:38:00.155Z,101525.70
2019-04-29T04:40:35.994Z,101534.38
2019-04-29T04:43:04.934Z,101535.25
2019-04-29T04:45:35.068Z,101530.81
2019-04-29T04:48:03.941Z,101534.33
2019-04-29T04:50:32.687Z,101532.63
2019-04-29T04:53:01.830Z,101534.33
2019-04-29T04:55:32.908Z,101538.22
2019-04-29T04:58:01.916Z,101532.11
2019-04-29T05:00:35.567Z,101536.49
2019-04-29T05:03:04.731Z,101533.84
2019-04-29T05:06:14.003Z,101529.90
2019-04-29T05:09:26.766Z,101529.44
2019-04-29T05:12:14.464Z,101542.50
2019-04-29T05:15:30.293Z,101542.40
2019-04-29T05:18:30.643Z,101552.04
2019-04-29T05:21:43.662Z,101554.61
2019-04-29T05:24:45.720Z,101558.08
2019-04-29T05:27:53.222Z,101554.16
2019-04-29T05:30:22.188Z,101560.23
2019-04-29T05:32:50.748Z,101561.60
2019-04-29T05:35:24.908Z,101557.59
2019-04-29T05:38:14.162Z,101557.16
2019-04-29T05:40:45.322Z,101554.52
2019-04-29T05:43:16.175Z,101555.41
2019-04-29T05:45:58.284Z,101557.05
2019-04-29T05:48:27.551Z,101566.94
2019-04-29T05:51:16.841Z,101569.42
2019-04-29T05:53:54.739Z,101572.45
2019-04-29T05:56:18.568Z,101560.62
2019-04-29T05:58:47.457Z,101565.25
2019-04-29T06:01:21.238Z,101566.81
2019-04-29T06:03:53.341Z,101565.98
2019-04-29T06:06:24.086Z,101571.56
2019-04-29T06:08:56.283Z,101576.47
2019-04-29T06:11:25.192Z,101570.62
2019-04-29T06:13:57.172Z,101580.27
2019-04-29T06:16:26.282Z,101573.69
2019-04-29T06:19:01.605Z,101583.23
2019-04-29T06:21:30.191Z,101575.27
2019-04-29T06:24:04.516Z,101577.30
2019-04-29T06:26:32.527Z,101571.95
2019-04-29T06:29:16.813Z,101567.92
2019-04-29T06:31:47.077Z,101570.32
2019-04-29T06:34:19.043Z,101560.42
2019-04-29T06:36:48.930Z,101556.80
2019-04-29T06:39:19.859Z,101557.96
2019-04-29T06:41:48.447Z,101553.80
2019-04-29T06:44:21.761Z,101560.19
2019-04-29T06:46:54.595Z,101556.21
2019-04-29T06:49:26.485Z,101565.52
2019-04-29T06:51:55.250Z,101563.90
2019-04-29T06:54:28.525Z,101571.12
2019-04-29T06:56:58.637Z,101573.08
2019-04-29T06:59:27.206Z,101576.28
2019-04-29T07:01:56.107Z,101579.28
2019-04-29T07:04:26.467Z,101580.20
2019-04-29T07:07:00.156Z,101575.98
2019-04-29T07:09:36.902Z,101582.27
2019-04-29T07:12:08.228Z,101576.20
2019-04-29T07:14:38.692Z,101575.79
2019-04-29T07:17:09.599Z,101579.63
2019-04-29T07:19:38.822Z,101572.02
2019-04-29T07:22:08.951Z,101570.16
2019-04-29T07:24:39.310Z,101565.80
2019-04-29T07:27:08.599Z,101571.06
2019-04-29T07:29:38.866Z,101564.16
2019-04-29T07:32:09.398Z,101568.09
2019-04-29T07:34:39.555Z,101563.95
2019-04-29T07:37:10.456Z,101564.06
2019-04-29T07:39:42.341Z,101560.30
2019-04-29T07:42:14.433Z,101557.49
2019-04-29T07:45:03.407Z,101558.95
2019-04-29T07:47:32.449Z,101556.15
2019-04-29T07:50:01.034Z,101545.38
2019-04-29T07:52:31.252Z,101541.73
2019-04-29T07:55:01.965Z,101532.89
2019-04-29T07:57:31.023Z,101536.00
2019-04-29T08:00:02.776Z,101535.09
2019-04-29T08:02:32.615Z,101544.02
2019-04-29T08:05:01.157Z,101534.01
2019-04-29T08:07:30.087Z,101538.11
2019-04-29T08:10:01.883Z,101539.61
2019-04-29T08:12:30.798Z,101527.88
2019-04-29T08:15:07.610Z,101534.99
2019-04-29T08:17:31.444Z,101531.33
2019-04-29T08:20:05.144Z,101525.11
2019-04-29T08:22:36.131Z,101540.69
2019-04-29T08:25:04.863Z,101532.52
2019-04-29T08:27:40.691Z,101529.79
2019-04-29T08:30:06.760Z,101532.50
2019-04-29T08:32:38.068Z,101534.17
2019-04-29T08:35:06.710Z,101527.12
2019-04-29T08:37:36.043Z,101528.39
2019-04-29T08:40:15.907Z,101530.25
2019-04-29T08:42:41.372Z,101525.44
2019-04-29T08:45:21.083Z,101529.63
2019-04-29T08:47:51.339Z,101523.75
2019-04-29T08:50:23.023Z,101528.06
2019-04-29T08:52:53.264Z,101534.51
2019-04-29T08:55:22.205Z,101530.02
2019-04-29T08:57:52.355Z,101540.30
2019-04-29T09:00:21.630Z,101529.52
2019-04-29T09:02:50.818Z,101534.09
2019-04-29T09:05:19.378Z,101536.79
2019-04-29T09:07:52.516Z,101525.80
2019-04-29T09:10:19.930Z,101539.69
2019-04-29T09:12:48.486Z,101540.78
2019-04-29T09:15:17.057Z,101543.03
2019-04-29T09:17:47.793Z,101534.50
2019-04-29T09:20:17.931Z,101534.55
2019-04-29T09:22:52.197Z,101528.64
2019-04-29T09:25:36.286Z,101523.37
2019-04-29T09:28:08.642Z,101523.37
2019-04-29T09:30:38.804Z,101529.34
2019-04-29T09:33:08.782Z,101525.55
2019-04-29T09:35:38.695Z,101525.55
2019-04-29T09:38:09.790Z,101520.15
2019-04-29T09:40:45.919Z,101521.11
2019-04-29T09:43:27.083Z,101525.53
2019-04-29T09:46:20.101Z,101521.16
2019-04-29T09:48:50.336Z,101515.40
2019-04-29T09:51:22.742Z,101520.08
2019-04-29T09:53:55.065Z,101514.33
2019-04-29T09:56:25.082Z,101514.53
2019-04-29T09:59:12.856Z,101512.93
2019-04-29T10:01:50.473Z,101515.55
2019-04-29T10:04:32.925Z,101515.59
2019-04-29T10:07:01.809Z,101516.83
2019-04-29T10:09:30.382Z,101513.17
2019-04-29T10:11:59.296Z,101516.51
2019-04-29T10:14:28.375Z,101508.52
2019-04-29T10:17:37.489Z,101506.84
2019-04-29T10:20:13.918Z,101503.62
2019-04-29T10:22:44.633Z,101508.84
2019-04-29T10:25:14.671Z,101512.59
2019-04-29T10:27:44.788Z,101506.59
2019-04-29T10:30:13.436Z,101501.61
2019-04-29T10:32:44.247Z,101505.67
2019-04-29T10:35:13.093Z,101506.29
2019-04-29T10:37:44.084Z,101496.45
2019-04-29T10:40:31.654Z,101494.52
2019-04-29T10:43:19.233Z,101491.47
2019-04-29T10:46:05.642Z,101493.23
2019-04-29T10:48:40.800Z,101488.45
2019-04-29T10:51:10.730Z,101480.77
2019-04-29T10:53:40.644Z,101485.75
2019-04-29T10:56:14.215Z,101493.00
2019-04-29T10:58:43.159Z,101484.85
2019-04-29T11:02:08.991Z,101482.73
2019-04-29T11:04:36.112Z,101478.96
2019-04-29T11:07:18.730Z,101491.16
2019-04-29T11:09:52.567Z,101485.64
2019-04-29T11:12:21.274Z,101478.95
2019-04-29T11:14:49.858Z,101478.95
2019-04-29T11:17:19.322Z,101480.06
2019-04-29T11:19:47.871Z,101478.47
2019-04-29T11:22:21.712Z,101473.59
2019-04-29T11:25:20.237Z,101473.59
2019-04-29T11:27:56.022Z,101468.78
2019-04-29T11:30:27.793Z,101468.78
2019-04-29T11:33:07.285Z,101467.09
2019-04-29T11:35:41.069Z,101453.44
2019-04-29T11:38:11.515Z,101453.44
2019-04-29T11:40:44.238Z,101456.18
2019-04-29T11:43:15.602Z,101454.44
2019-04-29T11:45:43.527Z,101453.05
2019-04-29T11:48:12.346Z,101456.34
2019-04-29T11:50:50.187Z,101456.34
2019-04-29T11:53:19.678Z,101453.27
2019-04-29T11:55:48.300Z,101458.39
2019-04-29T11:58:25.276Z,101457.50
2019-04-29T12:01:37.747Z,101457.50
2019-04-29T12:03:58.335Z,101460.26
2019-04-29T12:06:27.879Z,101450.79
2019-04-29T12:08:56.623Z,101452.51
2019-04-29T12:11:28.642Z,101438.45
2019-04-29T12:14:14.555Z,101438.88
2019-04-29T12:17:01.111Z,101427.98
2019-04-29T12:19:32.365Z,101416.08
2019-04-29T12:22:04.921Z,101410.40
2019-04-29T12:24:32.255Z,101404.69
2019-04-29T12:27:01.004Z,101389.87
2019-04-29T12:29:29.867Z,101381.56
2019-04-29T12:32:20.595Z,101387.38
2019-04-29T12:35:12.189Z,101380.07
2019-04-29T12:38:12.128Z,101381.61
2019-04-29T12:40:58.574Z,101381.61
2019-04-29T12:43:40.570Z,101390.77
2019-04-29T12:46:22.655Z,101390.77
2019-04-29T12:48:51.853Z,101373.52
2019-04-29T12:51:21.172Z,101378.28
2019-04-29T12:53:49.910Z,101381.08
2019-04-29T12:56:26.009Z,101376.69
2019-04-29T12:58:55.283Z,101371.61
2019-04-29T13:01:51.360Z,101361.55
2019-04-29T13:04:32.020Z,101361.55
2019-04-29T13:07:14.378Z,101368.33
2019-04-29T13:09:44.799Z,101366.91
2019-04-29T13:12:19.705Z,101372.62
2019-04-29T13:15:02.602Z,101369.39
2019-04-29T13:17:36.819Z,101379.38
2019-04-29T13:20:11.733Z,101379.38
2019-04-29T13:22:39.822Z,101381.52
2019-04-29T13:25:10.040Z,101370.93
2019-04-29T13:27:38.765Z,101370.93
2019-04-29T13:30:15.075Z,101364.05
2019-04-29T13:32:40.579Z,101371.13
2019-04-29T13:35:10.429Z,101365.89
2019-04-29T13:37:39.879Z,101376.27
2019-04-29T14:07:55.750Z,101341.30
2019-04-29T14:10:24.475Z,101335.58
2019-04-29T14:13:09.125Z,101335.58
2019-04-29T14:15:33.846Z,101329.48
2019-04-29T14:18:02.549Z,101330.83
2019-04-29T14:20:32.658Z,101332.73
2019-04-29T14:23:02.870Z,101333.05
2019-04-29T14:25:31.416Z,101325.83
2019-04-29T14:28:00.447Z,101332.13
2019-04-29T14:30:38.385Z,101332.13
2019-04-29T14:33:02.146Z,101344.93
2019-04-29T14:35:36.993Z,101346.15
2019-04-29T14:38:06.279Z,101343.36
2019-04-29T14:40:38.968Z,101342.62
2019-04-29T14:43:31.329Z,101339.48
2019-04-29T14:46:16.293Z,101345.78
2019-04-29T14:48:59.581Z,101327.89
2019-04-29T14:51:34.101Z,101327.89
2019-04-29T14:54:01.401Z,101331.44
2019-04-29T14:56:30.024Z,101332.55
2019-04-29T14:59:06.682Z,101331.75
2019-04-29T15:01:48.563Z,101337.04
2019-04-29T15:04:23.377Z,101345.25
2019-04-29T15:06:53.321Z,101343.87
2019-04-29T15:09:24.006Z,101350.48
2019-04-29T15:12:00.542Z,101344.36
2019-04-29T15:14:48.687Z,101343.99
2019-04-29T15:17:40.362Z,101343.99
2019-04-29T15:20:15.463Z,101348.60
2019-04-29T15:22:44.036Z,101349.28
2019-04-29T15:25:16.794Z,101341.61
2019-04-29T15:27:48.277Z,101341.98
2019-04-29T15:30:18.863Z,101342.92
2019-04-29T15:32:47.445Z,101339.39
2019-04-29T15:35:19.862Z,101339.39
2019-04-29T15:37:46.317Z,101334.47
2019-04-29T15:40:14.895Z,101334.98
2019-04-29T15:42:48.695Z,101336.47
2019-04-29T15:45:14.370Z,101328.69
2019-04-29T15:47:45.738Z,101328.69
2019-04-29T15:50:18.896Z,101335.20
2019-04-29T15:52:44.228Z,101332.76
2019-04-29T15:55:12.782Z,101325.78
2019-04-29T15:57:49.515Z,101327.58
2019-04-29T16:00:22.170Z,101330.40
2019-04-29T16:02:46.021Z,101336.94
2019-04-29T16:05:31.195Z,101327.85
2019-04-29T16:08:32.291Z,101339.06
2019-04-29T16:11:18.530Z,101331.39
2019-04-29T16:14:08.089Z,101326.42
2019-04-29T16:16:19.631Z,101326.42
2019-04-29T16:18:48.375Z,101330.69
2019-04-29T16:21:17.310Z,101330.70
2019-04-29T16:23:45.910Z,101326.05
2019-04-29T16:26:16.566Z,101327.68
2019-04-29T16:28:48.296Z,101332.55
2019-04-29T16:31:16.863Z,101333.36
2019-04-29T16:33:54.267Z,101330.69
2019-04-29T16:36:17.308Z,101330.73
2019-04-29T16:38:46.349Z,101330.38
2019-04-29T16:41:51.144Z,101329.26
2019-04-29T16:44:34.828Z,101328.73
2019-04-29T16:46:51.022Z,101331.34
2019-04-29T16:49:20.563Z,101323.91
2019-04-29T16:51:53.706Z,101322.95
2019-04-29T16:54:27.981Z,101317.19
2019-04-29T16:56:51.970Z,101315.36
2019-04-29T16:59:21.935Z,101314.58
2019-04-29T17:01:50.648Z,101316.88
2019-04-29T17:04:21.493Z,101317.45
2019-04-29T17:07:11.120Z,101320.15
2019-04-29T17:09:38.534Z,101313.02
2019-04-29T17:12:07.644Z,101313.02
2019-04-29T17:15:01.129Z,101324.02
2019-04-29T17:17:11.181Z,101324.02
2019-04-29T17:19:48.307Z,101324.98
2019-04-29T17:22:27.464Z,101325.70
2019-04-29T17:24:51.511Z,101328.06
2019-04-29T17:27:44.480Z,101325.08
2019-04-29T17:30:38.335Z,101321.97
2019-04-29T17:33:25.696Z,101324.87
2019-04-29T17:35:49.342Z,101328.48
2019-04-29T17:38:18.168Z,101327.36
2019-04-29T17:40:51.048Z,101335.52
2019-04-29T17:43:42.921Z,101335.52
2019-04-29T17:46:28.461Z,101336.47
2019-04-29T17:49:18.243Z,101333.64
2019-04-29T17:51:46.817Z,101336.84
2019-04-29T17:54:18.762Z,101337.14
2019-04-29T17:57:10.235Z,101337.14
2019-04-29T17:59:48.919Z,101338.47
2019-04-29T18:02:39.471Z,101335.52
2019-04-29T18:05:52.173Z,101337.74
2019-04-29T18:08:12.454Z,101335.37
2019-04-29T18:10:45.806Z,101347.21
2019-04-29T18:13:18.867Z,101347.11
2019-04-29T18:16:00.017Z,101343.55
2019-04-29T18:18:24.380Z,101346.38
2019-04-29T18:21:30.130Z,101348.66
2019-04-29T18:24:12.784Z,101356.86
2019-04-29T18:26:52.707Z,101357.64
2019-04-29T18:29:21.584Z,101354.00
2019-04-29T18:31:50.352Z,101359.17
2019-04-29T18:34:19.532Z,101358.86
2019-04-29T18:36:49.973Z,101362.47
2019-04-29T18:39:25.075Z,101364.30
2019-04-29T18:41:58.823Z,101356.00
2019-04-29T18:44:30.125Z,101367.17
2019-04-29T18:46:58.842Z,101366.74
2019-04-29T18:49:27.771Z,101370.61
2019-04-29T18:52:01.604Z,101375.58
2019-04-29T18:54:29.782Z,101381.61
2019-04-29T18:56:59.745Z,101384.52
2019-04-29T18:59:33.268Z,101384.64
2019-04-29T19:02:07.747Z,101384.10
2019-04-29T19:04:56.536Z,101389.77
2019-04-29T19:07:31.853Z,101390.18
2019-04-29T19:10:01.215Z,101392.72
2019-04-29T19:12:31.747Z,101396.80
2019-04-29T19:15:04.928Z,101392.25
2019-04-29T19:17:38.805Z,101391.40
2019-04-29T19:20:08.643Z,101394.22
2019-04-29T19:22:39.935Z,101397.92
2019-04-29T19:25:08.673Z,101397.87
2019-04-29T19:27:39.964Z,101399.08
2019-04-29T19:30:09.144Z,101398.70
2019-04-29T19:32:39.766Z,101394.95
2019-04-29T19:35:12.796Z,101401.77
2019-04-29T19:37:41.761Z,101403.47
2019-04-29T19:40:10.920Z,101404.31
2019-04-29T19:42:40.984Z,101401.62
2019-04-29T19:45:13.306Z,101407.85
2019-04-29T19:47:41.249Z,101414.47
2019-04-29T19:50:16.620Z,101408.34
2019-04-29T19:52:47.209Z,101408.19
2019-04-29T19:55:18.159Z,101417.45
2019-04-29T19:57:52.271Z,101414.36
2019-04-29T20:00:28.442Z,101420.09
2019-04-29T20:02:53.489Z,101423.73
2019-04-29T20:05:32.788Z,101420.71
2019-04-29T20:08:00.416Z,101416.44
2019-04-29T20:10:32.113Z,101419.56
2019-04-29T20:13:03.462Z,101422.52
2019-04-29T20:15:37.296Z,101419.61
2019-04-29T20:18:26.009Z,101424.90
2019-04-29T20:21:08.956Z,101421.73
2019-04-29T20:23:39.216Z,101420.88
2019-04-29T20:26:15.693Z,101424.02
2019-04-29T20:28:39.315Z,101419.34
2019-04-29T20:31:17.921Z,101419.61
2019-04-29T20:33:42.196Z,101419.61
2019-04-29T20:36:13.003Z,101411.77
2019-04-29T20:38:45.489Z,101423.63
2019-04-29T20:41:21.002Z,101424.27
2019-04-29T20:43:51.817Z,101428.59
2019-04-29T20:46:22.189Z,101422.78
2019-04-29T20:48:55.829Z,101420.24
2019-04-29T20:51:28.445Z,101420.24
2019-04-29T20:54:15.927Z,101415.15
2019-04-29T20:56:46.991Z,101409.53
2019-04-29T20:59:16.217Z,101412.98
2019-04-29T21:01:48.927Z,101410.19
2019-04-29T21:04:31.266Z,101412.03
2019-04-29T21:06:59.802Z,101413.19
2019-04-29T21:09:26.607Z,101413.19
2019-04-29T21:12:15.706Z,101414.83
2019-04-29T21:14:48.877Z,101413.14
2019-04-29T21:17:28.610Z,101398.34
2019-04-29T21:19:49.535Z,101398.34
2019-04-29T21:22:22.429Z,101405.80
2019-04-29T21:24:49.510Z,101407.12
2019-04-29T21:27:22.617Z,101402.60
2019-04-29T21:29:54.091Z,101402.60
2019-04-29T21:32:20.265Z,101408.28
2019-04-29T21:35:05.757Z,101408.28
2019-04-29T21:37:43.916Z,101407.10
2019-04-29T21:40:18.734Z,101403.25
2019-04-29T21:42:51.046Z,101403.25
2019-04-29T21:45:19.800Z,101409.87
2019-04-29T21:47:53.458Z,101406.20
2019-04-29T21:50:22.066Z,101413.03
2019-04-29T21:52:55.317Z,101413.03
2019-04-29T21:55:27.821Z,101412.29
2019-04-29T21:57:54.485Z,101406.47
2019-04-29T22:00:24.449Z,101408.28
2019-04-29T22:02:55.942Z,101413.29
2019-04-29T22:05:25.156Z,101413.29
2019-04-29T22:07:54.267Z,101413.95
2019-04-29T22:10:28.939Z,101413.95
2019-04-29T22:13:01.932Z,101413.57
2019-04-29T22:15:37.245Z,101427.80
2019-04-29T22:18:07.265Z,101417.41
2019-04-29T22:20:41.954Z,101424.25
2019-04-29T22:23:08.464Z,101424.25
2019-04-29T22:25:41.191Z,101435.40
2019-04-29T22:28:10.819Z,101430.91
2019-04-29T22:30:40.744Z,101428.22
2019-04-29T22:33:09.336Z,101427.56
2019-04-29T22:35:40.813Z,101423.12
2019-04-29T22:38:12.737Z,101428.07
2019-04-29T22:40:42.811Z,101428.03
2019-04-29T22:43:18.038Z,101428.03
2019-04-29T22:45:48.283Z,101426.56
2019-04-29T22:48:19.759Z,101426.56
2019-04-29T22:50:49.080Z,101430.37
2019-04-29T22:53:19.408Z,101446.30
2019-04-29T22:55:47.988Z,101444.22
2019-04-29T22:58:18.138Z,101444.22
2019-04-29T23:00:46.889Z,101438.18
2019-04-29T23:03:18.647Z,101438.82
2019-04-29T23:05:50.810Z,101434.39
2019-04-29T23:08:25.187Z,101431.75
2019-04-29T23:10:59.764Z,101439.16
2019-04-29T23:13:31.106Z,101437.97
2019-04-29T23:16:02.254Z,101434.05
2019-04-29T23:18:42.135Z,101423.32
2019-04-29T23:21:42.406Z,101423.32
2019-04-29T23:24:18.434Z,101426.69
2019-04-29T23:26:50.454Z,101427.20
2019-04-29T23:29:19.060Z,101419.74
2019-04-29T23:31:47.668Z,101412.16
2019-04-29T23:34:18.247Z,101409.81
2019-04-29T23:36:48.989Z,101415.56
2019-04-29T23:39:17.666Z,101410.63
2019-04-29T23:41:46.244Z,101414.54
2019-04-29T23:44:19.966Z,101411.05
2019-04-29T23:46:50.189Z,101412.32
2019-04-29T23:49:19.059Z,101405.98
2019-04-29T23:51:47.889Z,101407.39
2019-04-29T23:54:16.652Z,101407.18
2019-04-29T23:57:06.131Z,101406.03
2019-04-29T23:59:36.883Z,101404.38
